Andover, IA

5:35 PM CST on March 01, 2015 (GMT -0600)
Mayer Farm @ Eagle Point | Change Station
CLOSE
Current Station
Personal Weather Station
Location: Clinton, IA
Elevation: 745 ft
Nearby Weather Stations

Elev 745 ft 41.89 °N, 90.19 °W | Updated 12 minutes ago

Overcast
Overcast
23.6 °F
Feels Like 13 °F
N
11.0
Wind Variable Wind from WSW
Gusts 15.0 mph

Today
High -- | Low -- °F
--% Chance of Precip.
Yesterday
High -- | Low -- °F
Precip. -- in
6:36 AM 5:50 PM
Waxing Gibbous, 88% visible
Pressure 30.30 in
Visibility 10.0 miles
Clouds Scattered Clouds 3100 ft
Windchill 13 °F
Dew Point 19 °F
Humidity 82%
Rainfall 0.00 in
Snow Depth Not available.
UV 0 out of 12
Pollen .40 out of 12
Air Quality Not available.
Flu Activity Not available.
METAR KSFY 012315Z AUTO 25008G16KT 10SM SCT031 M03/M08 A3030 RMK AO2 T10271080

More Conditions Fewer Conditions

Pressure 30.30 in
Visibility 10.0 miles
Clouds Scattered Clouds 3100 ft
Windchill 13 °F
Dew Point 19 °F
Humidity 82%
Rainfall 0.00 in
Snow Depth Not available.
UV 0 out of 12
Pollen .40 out of 12
Air Quality Not available.
Flu Activity Not available.
METAR KSFY 012315Z AUTO 25008G16KT 10SM SCT031 M03/M08 A3030 RMK AO2 T10271080

More Conditions Fewer Conditions

10-Day Weather Forecast

Almanac

Astronomy

Mar. 01, 2015 Rise Set
Actual Time
Civil Twilight
Nautical Twilight
Astronomical Twilight
Moon
Length of Visible Light
Length of Day
Tomorrow will be .
, % of the Moon is Illuminated

Today's Extremes

State Highs State Lows

Community

WunderPhotos

Upload Photos

1,801,610 photos uploaded!

WunderBlogs® & News

Nearby

Air Quality

  Air Quality AQ Index Pollutant
Not available.

Snow Depth

Station Depth Elevation

Earthquake Activity

City Distance Mag. Time & Date
Minimum magnitude displayed is 2.5.

Coastal Water Temperatures

Place Temperature

Nearby Weather Stations